createdAt,value
2023-04-09T11:27:18.179Z,58.01
2023-04-09T11:29:15.025Z,57.79
2023-04-09T11:30:55.125Z,60.71
2023-04-09T11:32:49.116Z,59.89
2023-04-09T11:34:36.067Z,61.16
2023-04-09T11:36:35.877Z,60.28
2023-04-09T11:38:22.936Z,58.97
2023-04-09T11:40:15.962Z,60.91
2023-04-09T11:42:17.949Z,58.60
2023-04-09T11:44:05.188Z,56.90
2023-04-09T11:45:59.098Z,59.57
2023-04-09T11:47:40.773Z,58.67
2023-04-09T11:49:34.914Z,59.40
2023-04-09T11:51:28.006Z,54.62
2023-04-09T11:53:09.296Z,58.12
2023-04-09T11:55:01.947Z,56.26
2023-04-09T11:56:50.046Z,57.93
2023-04-09T11:58:52.209Z,54.21
2023-04-09T12:00:42.106Z,52.60
2023-04-09T12:02:36.170Z,56.23
2023-04-09T12:04:21.393Z,53.90
2023-04-09T12:06:15.973Z,56.99
2023-04-09T12:08:05.988Z,53.33
2023-04-09T12:09:57.922Z,55.08
2023-04-09T12:11:52.131Z,54.92
2023-04-09T12:13:50.052Z,54.99
2023-04-09T12:15:52.958Z,54.14
2023-04-09T12:17:39.983Z,55.04
2023-04-09T12:19:33.038Z,55.72
2023-04-09T12:21:32.967Z,53.52
2023-04-09T12:23:20.034Z,54.17
2023-04-09T12:25:13.072Z,53.91
2023-04-09T12:26:53.671Z,51.29
2023-04-09T12:28:46.230Z,54.31
2023-04-09T12:30:33.104Z,52.86
2023-04-09T12:32:21.254Z,53.48
2023-04-09T12:34:01.267Z,50.57
2023-04-09T12:35:48.107Z,52.74
2023-04-09T12:37:28.931Z,52.87
2023-04-09T12:39:22.294Z,50.43
2023-04-09T12:53:10.668Z,48.14
2023-04-09T12:55:10.392Z,48.61
2023-04-09T12:56:57.323Z,48.59
2023-04-09T12:58:50.615Z,49.79
2023-04-09T13:00:50.335Z,48.98
2023-04-09T13:02:37.562Z,48.95
2023-04-09T13:04:30.538Z,49.88
2023-04-09T13:06:10.436Z,49.24
2023-04-09T13:08:03.431Z,49.65
2023-04-09T13:09:51.663Z,47.89
2023-04-09T13:11:37.716Z,49.09
2023-04-09T13:13:17.208Z,48.40
2023-04-09T13:15:05.441Z,49.26
2023-04-09T13:16:45.752Z,49.67
2023-04-09T13:18:38.360Z,48.03
2023-04-09T13:20:25.499Z,49.16
2023-04-09T13:22:25.447Z,47.61
2023-04-09T13:24:12.271Z,48.22
2023-04-09T13:26:07.510Z,48.81
2023-04-09T13:27:47.088Z,47.27
2023-04-09T13:29:39.408Z,49.09
2023-04-09T13:31:26.946Z,48.46
2023-04-09T13:33:12.593Z,49.29
2023-04-09T13:34:53.825Z,48.13
2023-04-09T13:36:40.725Z,49.50
2023-04-09T13:38:20.650Z,49.51
2023-04-09T13:40:15.363Z,48.45
2023-04-09T13:42:12.542Z,49.47
2023-04-09T13:44:13.363Z,49.33
2023-04-09T13:46:00.188Z,49.25
2023-04-09T13:47:53.776Z,50.02
2023-04-09T13:49:53.400Z,48.82
2023-04-09T13:51:40.177Z,49.51
2023-04-09T13:53:34.654Z,49.97
2023-04-09T13:55:27.478Z,49.99
2023-04-09T13:57:29.340Z,49.75
2023-04-09T13:59:23.626Z,49.93
2023-04-09T14:01:09.737Z,50.67
2023-04-09T14:02:49.250Z,50.80
2023-04-09T14:04:36.699Z,50.89
2023-04-09T14:06:16.703Z,51.51
2023-04-09T14:08:10.400Z,51.16
2023-04-09T14:09:58.006Z,51.61
2023-04-09T14:11:57.564Z,51.18
2023-04-09T14:13:46.076Z,51.26
2023-04-09T14:15:39.507Z,51.68
2023-04-09T14:17:19.329Z,51.18
2023-04-09T14:19:13.457Z,51.34
2023-04-09T14:21:00.601Z,50.48
2023-04-09T14:22:49.577Z,51.25
2023-04-09T14:24:29.403Z,50.68
2023-04-09T14:26:16.490Z,51.18
2023-04-09T14:27:56.488Z,51.30
2023-04-09T14:29:51.445Z,50.42
2023-04-09T14:31:44.650Z,51.31
2023-04-09T14:33:24.416Z,50.96
2023-04-09T14:35:17.438Z,51.30
2023-04-09T14:37:03.480Z,51.47
2023-04-09T14:38:49.682Z,51.57
2023-04-09T14:40:29.242Z,51.26
2023-04-09T14:42:16.702Z,51.80
2023-04-09T14:43:56.797Z,51.52
2023-04-09T14:45:51.401Z,50.92
2023-04-09T14:47:38.623Z,51.62
2023-04-09T14:49:31.628Z,51.01
2023-04-09T14:51:18.400Z,51.50
2023-04-09T14:53:04.608Z,51.11
2023-04-09T14:54:50.773Z,51.25
2023-04-09T14:56:37.460Z,50.85
2023-04-09T14:58:31.604Z,51.24
2023-04-09T15:00:13.367Z,50.95
2023-04-09T15:02:08.589Z,51.56
2023-04-09T15:03:55.724Z,51.20
2023-04-09T15:05:41.780Z,51.49
2023-04-09T15:07:23.236Z,51.04
2023-04-09T15:09:11.512Z,51.82
2023-04-09T15:10:51.066Z,51.81
2023-04-09T15:12:44.447Z,51.42
2023-04-09T15:14:31.599Z,51.94
2023-04-09T15:16:28.701Z,51.18
2023-04-09T15:18:16.481Z,51.65
2023-04-09T15:20:02.628Z,51.54
2023-04-09T15:21:48.728Z,51.98
2023-04-09T15:23:32.001Z,51.63
2023-04-09T15:25:19.019Z,51.85
2023-04-09T15:26:58.951Z,52.24
2023-04-09T15:28:52.814Z,51.60
2023-04-09T15:30:39.826Z,52.45
2023-04-09T15:32:39.585Z,51.55
2023-04-09T15:34:28.351Z,51.82
2023-04-09T15:36:22.769Z,52.44
2023-04-09T15:38:02.209Z,51.77
2023-04-09T15:39:54.514Z,52.29
2023-04-09T15:41:40.703Z,52.25
2023-04-09T15:43:27.564Z,51.96
2023-04-09T15:45:08.521Z,51.14
2023-04-09T15:46:55.689Z,52.19
2023-04-09T15:48:38.132Z,52.30
2023-04-09T15:50:32.467Z,51.14
2023-04-09T15:52:25.849Z,52.14
2023-04-09T15:54:05.597Z,51.42
2023-04-09T15:56:00.489Z,51.94
2023-04-09T15:57:53.775Z,51.51
2023-04-09T15:59:39.844Z,52.00
2023-04-09T16:01:19.607Z,51.63
2023-04-09T16:03:06.727Z,52.20
2023-04-09T16:04:46.789Z,52.39
2023-04-09T16:06:43.541Z,52.08
2023-04-09T16:08:29.771Z,52.46
2023-04-09T16:10:16.362Z,51.76
2023-04-09T16:12:09.529Z,52.36
2023-04-09T16:13:55.884Z,51.51
2023-04-09T16:15:41.755Z,52.15
2023-04-09T16:17:21.428Z,51.65
2023-04-09T16:19:07.930Z,52.07
2023-04-09T16:20:50.378Z,52.04
2023-04-09T16:22:45.634Z,51.52
2023-04-09T16:24:33.623Z,51.89
2023-04-09T16:26:33.521Z,51.87
2023-04-09T16:28:22.106Z,52.01
2023-04-09T16:30:14.712Z,52.11
2023-04-09T16:31:55.305Z,52.14
2023-04-09T16:33:52.566Z,52.54
2023-04-09T16:35:39.680Z,52.78
2023-04-09T16:37:25.718Z,52.59
2023-04-09T16:39:06.811Z,52.63
2023-04-09T16:40:53.743Z,52.80
2023-04-09T16:42:34.739Z,52.91
2023-04-09T16:44:28.595Z,52.89
2023-04-09T16:46:21.934Z,52.53
2023-04-09T16:48:01.611Z,52.31
2023-04-09T16:49:54.641Z,52.58
2023-04-09T16:51:41.940Z,52.54
2023-04-09T16:53:28.111Z,52.79
2023-04-09T16:55:09.708Z,52.60
2023-04-09T16:57:03.854Z,52.91
2023-04-09T16:58:43.363Z,52.87
2023-04-09T17:00:36.572Z,52.90
2023-04-09T17:02:22.628Z,52.91
2023-04-09T17:04:08.931Z,53.22
2023-04-09T17:06:02.512Z,53.25
2023-04-09T17:07:48.681Z,53.73
2023-04-09T17:09:48.573Z,53.45
2023-04-09T17:11:38.100Z,53.33
2023-04-09T17:13:31.812Z,53.87
2023-04-09T17:15:12.587Z,53.75
2023-04-09T17:17:05.647Z,54.00
2023-04-09T17:18:53.150Z,53.81
2023-04-09T17:20:39.948Z,54.26
2023-04-09T17:22:19.442Z,53.95
2023-04-09T17:24:06.820Z,54.58
2023-04-09T17:25:47.286Z,54.45
2023-04-09T17:27:41.557Z,54.41
2023-04-09T17:29:27.787Z,55.26
2023-04-09T17:31:30.594Z,55.00
2023-04-09T17:33:30.538Z,55.56
2023-04-09T17:35:23.771Z,56.53
2023-04-09T17:37:09.917Z,57.05
2023-04-09T17:38:52.071Z,57.46
2023-04-09T17:40:38.792Z,58.08
2023-04-09T17:42:24.836Z,58.68
2023-04-09T17:44:06.074Z,59.01
2023-04-09T17:45:52.871Z,58.94
2023-04-09T17:47:32.797Z,58.92
2023-04-09T17:49:25.598Z,59.34
2023-04-09T17:51:12.003Z,59.62
2023-04-09T17:53:04.830Z,58.40
2023-04-09T17:54:51.616Z,58.88
2023-04-09T17:56:45.694Z,59.16
2023-04-09T17:58:45.567Z,60.54
2023-04-09T18:00:34.417Z,69.36
2023-04-09T18:02:28.045Z,72.87
2023-04-09T18:04:07.675Z,79.37
2023-04-09T18:06:00.579Z,79.03
2023-04-09T18:07:46.650Z,84.37
2023-04-09T18:09:32.982Z,81.45
2023-04-09T18:11:14.159Z,89.57
2023-04-09T18:12:59.687Z,85.79
2023-04-09T18:14:39.850Z,88.67
2023-04-09T18:16:34.647Z,88.58
2023-04-09T18:18:21.831Z,83.94
2023-04-09T18:20:22.612Z,87.21
2023-04-09T18:22:09.658Z,88.34
2023-04-09T18:24:02.933Z,84.68
2023-04-09T18:25:42.347Z,86.83
2023-04-09T18:27:34.682Z,83.80
2023-04-09T18:29:20.978Z,87.20
2023-04-09T18:31:07.133Z,84.77
2023-04-09T18:32:49.220Z,87.83
2023-04-09T18:34:35.846Z,86.14
2023-04-09T18:36:15.896Z,87.28
2023-04-09T18:38:08.645Z,89.49
2023-04-09T18:39:54.843Z,87.99
2023-04-09T18:41:54.667Z,92.35
2023-04-09T18:43:54.629Z,94.33
2023-04-09T18:45:49.099Z,95.82
2023-04-09T18:47:35.845Z,92.87
2023-04-09T18:49:16.841Z,99.49
2023-04-09T18:51:02.851Z,94.96
2023-04-09T18:52:42.801Z,96.72
2023-04-09T18:54:35.665Z,100.00
2023-04-09T18:56:21.854Z,97.87
2023-04-09T18:58:22.690Z,100.00
2023-04-09T19:00:10.461Z,100.00
2023-04-09T19:02:05.468Z,100.00
2023-04-09T19:03:45.872Z,100.00
2023-04-09T19:05:40.681Z,100.00
2023-04-09T19:07:27.752Z,100.00
2023-04-09T19:09:13.907Z,100.00
2023-04-09T19:10:53.692Z,100.00
2023-04-09T19:12:41.040Z,100.00
2023-04-09T19:14:21.218Z,100.00
2023-04-09T19:16:15.682Z,100.00
2023-04-09T19:18:09.893Z,100.00
2023-04-09T19:19:49.865Z,100.00
2023-04-09T19:21:44.702Z,100.00
2023-04-09T19:23:31.080Z,100.00
2023-04-09T19:25:18.285Z,100.00
2023-04-09T19:26:59.644Z,100.00
2023-04-09T19:28:45.846Z,100.00
2023-04-09T19:30:25.882Z,100.00
2023-04-09T19:32:19.694Z,100.00
2023-04-09T19:34:06.058Z,100.00
2023-04-09T19:35:54.106Z,100.00
2023-04-09T19:37:48.731Z,100.00
2023-04-09T19:39:34.878Z,100.00
2023-04-09T19:41:22.080Z,100.00
2023-04-09T19:43:01.450Z,100.00
2023-04-09T19:44:46.837Z,100.00
2023-04-09T19:46:27.000Z,100.00
2023-04-09T19:48:20.721Z,100.00
2023-04-09T19:50:07.893Z,100.00
2023-04-09T19:52:07.734Z,100.00
2023-04-09T19:53:55.976Z,100.00
2023-04-09T19:55:49.928Z,100.00
2023-04-09T19:57:44.196Z,100.00
2023-04-09T19:59:29.795Z,100.00
2023-04-09T20:01:16.947Z,100.00
2023-04-09T20:03:05.849Z,100.00
2023-04-09T20:04:45.438Z,100.00
2023-04-09T20:06:31.811Z,100.00
2023-04-09T20:08:15.560Z,100.00
2023-04-09T20:10:10.689Z,100.00
2023-04-09T20:11:58.194Z,100.00
2023-04-09T20:13:58.708Z,100.00
2023-04-09T20:15:58.801Z,100.00
2023-04-09T20:17:51.928Z,100.00
2023-04-09T20:19:38.060Z,100.00
2023-04-09T20:21:18.822Z,100.00
2023-04-09T20:23:04.921Z,100.00
2023-04-09T20:24:45.001Z,100.00
2023-04-09T20:26:39.767Z,100.00
2023-04-09T20:28:26.237Z,100.00
2023-04-09T20:30:26.739Z,100.00
2023-04-09T20:32:14.032Z,100.00
2023-04-09T20:34:06.927Z,100.00
2023-04-09T20:35:46.745Z,100.00
2023-04-09T20:37:39.723Z,100.00
2023-04-09T20:39:26.187Z,100.00
2023-04-09T20:41:12.991Z,100.00
2023-04-09T20:42:54.106Z,100.00
2023-04-09T20:44:40.876Z,100.00
2023-04-09T20:46:21.133Z,100.00
2023-04-09T20:48:13.750Z,100.00
2023-04-09T20:49:59.987Z,100.00
2023-04-09T20:51:46.524Z,100.00
2023-04-09T20:53:39.751Z,100.00
2023-04-09T20:55:25.836Z,100.00
2023-04-09T20:57:25.779Z,100.00
2023-04-09T20:59:14.166Z,100.00
2023-04-09T21:01:07.299Z,100.00
2023-04-09T21:02:46.642Z,100.00
2023-04-09T21:04:39.768Z,100.00
2023-04-09T21:06:25.829Z,100.00
2023-04-09T21:08:15.433Z,100.00
2023-04-09T21:09:56.025Z,100.00
2023-04-09T21:11:42.118Z,100.00
2023-04-09T21:13:22.014Z,100.00
2023-04-09T21:15:17.733Z,100.00
2023-04-09T21:17:04.084Z,100.00
2023-04-09T21:19:03.800Z,100.00
2023-04-09T21:20:51.064Z,100.00
2023-04-09T21:22:43.930Z,100.00
2023-04-09T21:24:23.638Z,100.00
2023-04-09T21:26:18.754Z,100.00
2023-04-09T21:28:04.982Z,100.00
2023-04-09T21:29:51.070Z,100.00
2023-04-09T21:31:32.138Z,100.00
2023-04-09T21:33:17.940Z,100.00
2023-04-09T21:34:58.092Z,100.00
2023-04-09T21:36:51.771Z,100.00
2023-04-09T21:38:37.926Z,100.00
2023-04-09T21:40:37.815Z,100.00
2023-04-09T21:42:37.831Z,100.00
2023-04-09T21:44:31.176Z,100.00
2023-04-09T21:46:17.038Z,100.00
2023-04-09T21:47:58.398Z,100.00
2023-04-09T21:49:47.053Z,100.00
2023-04-09T21:51:27.572Z,100.00
2023-04-09T21:53:20.808Z,100.00
2023-04-09T21:55:07.049Z,100.00
2023-04-09T21:57:06.826Z,100.00
2023-04-09T21:58:53.896Z,100.00
2023-04-09T22:00:47.118Z,100.00
2023-04-09T22:02:26.831Z,100.00
2023-04-09T22:04:21.844Z,100.00
2023-04-09T22:06:07.938Z,100.00
2023-04-09T22:08:07.773Z,100.00
2023-04-09T22:09:55.512Z,100.00
2023-04-09T22:11:47.975Z,100.00
2023-04-09T22:13:27.809Z,100.00
2023-04-09T22:15:21.817Z,100.00
2023-04-09T22:17:09.028Z,100.00
2023-04-09T22:18:55.381Z,100.00
2023-04-09T22:20:37.034Z,100.00
2023-04-09T22:22:23.045Z,100.00
2023-04-09T22:24:03.126Z,100.00
2023-04-09T22:25:55.914Z,100.00
2023-04-09T22:27:42.078Z,100.00
2023-04-09T22:29:37.159Z,100.00
2023-04-09T22:31:23.814Z,100.00
2023-04-09T22:33:10.047Z,100.00
2023-04-09T22:34:56.134Z,100.00
2023-04-09T22:36:36.958Z,100.00
2023-04-09T22:38:23.103Z,100.00
2023-04-09T22:40:03.096Z,100.00
2023-04-09T22:41:55.882Z,100.00
2023-04-09T22:43:42.022Z,100.00
2023-04-09T22:45:42.805Z,100.00
2023-04-09T22:47:29.649Z,100.00
2023-04-09T22:49:23.081Z,100.00
2023-04-09T22:51:22.836Z,100.00
2023-04-09T22:53:10.939Z,100.00
2023-04-09T22:55:04.107Z,100.00
2023-04-09T22:56:56.877Z,100.00
2023-04-09T22:58:56.826Z,100.00
2023-04-09T23:00:50.132Z,100.00
2023-04-09T23:02:30.198Z,100.00
2023-04-09T23:04:24.888Z,100.00
2023-04-09T23:06:12.087Z,100.00
2023-04-09T23:08:11.893Z,100.00
2023-04-09T23:10:00.483Z,100.00
2023-04-09T23:11:53.061Z,100.00
2023-04-09T23:13:32.641Z,100.00
2023-04-09T23:15:26.848Z,100.00
2023-04-09T23:17:13.190Z,100.00
2023-04-09T23:18:59.103Z,100.00
2023-04-09T23:20:38.760Z,100.00
2023-04-09T23:22:25.090Z,100.00
2023-04-09T23:24:05.097Z,100.00
2023-04-09T23:25:59.882Z,100.00
2023-04-09T23:27:46.167Z,100.00
2023-04-09T23:29:45.911Z,100.00
2023-04-09T23:31:32.695Z,100.00
2023-04-09T23:33:26.108Z,100.00
2023-04-09T23:35:26.901Z,100.00
2023-04-09T23:37:13.870Z,100.00
2023-04-09T23:39:07.034Z,100.00
2023-04-09T23:40:47.634Z,100.00
2023-04-09T23:42:41.851Z,100.00
2023-04-09T23:44:27.946Z,100.00
2023-04-09T23:46:14.300Z,100.00
2023-04-09T23:47:53.829Z,100.00
2023-04-09T23:49:40.976Z,100.00
2023-04-09T23:51:25.319Z,100.00
2023-04-09T23:53:18.899Z,100.00
2023-04-09T23:55:06.947Z,100.00
2023-04-09T23:57:06.990Z,100.00
2023-04-09T23:58:55.075Z,100.00
